Time;durP1;ratioP1;P1;durP2;ratioP2;P2;SDS_P1;SDS_P2;PMS_P1;PMS_P2;Temp;Humidity;BMP_temperature;BMP_pressure;BME280_temperature;BME280_humidity;BME280_pressure;Samples;Min_cycle;Max_cycle;Signal;HPM_P1;HPM_P2
2021/04/12 00:00:45;;;;;;;6.50;5.85;;;5.90;1.00;;;;;;5036593;28;20225;-76
2021/04/12 00:03:16;;;;;;;6.43;5.93;;;5.90;1.00;;;;;;5055804;28;20279;-79
2021/04/12 00:05:47;;;;;;;6.63;6.13;;;5.90;1.00;;;;;;5052974;28;20236;-77
2021/04/12 00:08:21;;;;;;;6.88;6.05;;;5.90;1.00;;;;;;5053262;28;20312;-78
2021/04/12 00:10:59;;;;;;;6.30;5.70;;;5.90;1.00;;;;;;5054157;28;20244;-80
2021/04/12 00:13:34;;;;;;;5.50;5.00;;;5.80;1.00;;;;;;5046073;28;20233;-79
2021/04/12 00:16:12;;;;;;;5.60;5.07;;;5.80;1.00;;;;;;5057569;28;21178;-77
2021/04/12 00:18:41;;;;;;;5.90;5.30;;;5.70;1.00;;;;;;5053420;28;20225;-78
2021/04/12 00:21:13;;;;;;;5.80;5.30;;;5.80;1.00;;;;;;5055787;28;20252;-78
2021/04/12 00:23:45;;;;;;;4.65;4.25;;;5.70;1.00;;;;;;5043665;28;20935;-79
2021/04/12 00:26:17;;;;;;;4.75;4.35;;;5.70;1.00;;;;;;5053371;28;20256;-81
2021/04/12 00:28:49;;;;;;;5.30;4.90;;;5.70;1.00;;;;;;5051055;28;21594;-82
2021/04/12 00:31:20;;;;;;;5.68;5.10;;;5.60;1.00;;;;;;5066359;28;20381;-77
2021/04/12 00:33:53;;;;;;;5.80;5.32;;;5.70;1.00;;;;;;5052079;28;20264;-78
2021/04/12 00:36:31;;;;;;;6.03;5.43;;;5.70;1.00;;;;;;5059954;28;20321;-80
2021/04/12 00:39:06;;;;;;;5.25;4.30;;;5.60;1.00;;;;;;5049444;28;20970;-80
2021/04/12 00:41:50;;;;;;;5.05;4.65;;;5.60;1.00;;;;;;5064992;28;20296;-79
2021/04/12 00:44:39;;;;;;;5.53;5.03;;;5.50;1.00;;;;;;5045965;28;20778;-80
2021/04/12 00:47:19;;;;;;;4.75;4.20;;;5.40;1.00;;;;;;5059028;28;20280;-81
2021/04/12 00:49:58;;;;;;;5.80;5.30;;;5.30;1.00;;;;;;5065753;28;20295;-81
2021/04/12 00:53:12;;;;;;;5.13;4.63;;;5.20;1.00;;;;;;5061880;28;20227;-81
2021/04/12 00:55:45;;;;;;;5.70;4.30;;;5.20;1.00;;;;;;5002669;28;20254;-81
2021/04/12 00:58:31;;;;;;;4.85;4.45;;;5.10;1.00;;;;;;5009348;28;20222;-82
2021/04/12 01:01:21;;;;;;;6.10;5.50;;;5.20;1.00;;;;;;5051958;28;20229;-82
2021/04/12 01:04:24;;;;;;;6.38;5.88;;;5.20;1.00;;;;;;5072200;28;20217;-80
2021/04/12 01:07:38;;;;;;;5.70;5.20;;;5.20;1.00;;;;;;5048917;28;20271;-80
2021/04/12 01:10:38;;;;;;;6.00;5.50;;;5.20;1.00;;;;;;5062175;28;20225;-81
2021/04/12 01:13:56;;;;;;;6.55;5.95;;;5.20;1.00;;;;;;5068289;28;20256;-81
2021/04/12 01:17:04;;;;;;;5.72;5.22;;;5.00;1.00;;;;;;5037563;28;20228;-81
2021/04/12 01:20:18;;;;;;;6.85;6.15;;;5.00;1.00;;;;;;4995944;28;20542;-82
2021/04/12 01:23:48;;;;;;;6.60;5.93;;;4.90;1.00;;;;;;5072105;28;20984;-79
2021/04/12 01:27:08;;;;;;;6.22;5.60;;;4.90;1.00;;;;;;4993062;28;20307;-81
2021/04/12 01:30:11;;;;;;;6.57;5.97;;;4.90;1.00;;;;;;5026503;28;20258;-79
2021/04/12 01:33:17;;;;;;;7.20;6.60;;;4.90;1.00;;;;;;5084809;28;20297;-82
2021/04/12 01:36:26;;;;;;;6.50;5.90;;;4.80;1.00;;;;;;5075806;28;20924;-82
2021/04/12 01:39:04;;;;;;;6.47;5.70;;;4.80;1.00;;;;;;5054407;28;20290;-81
2021/04/12 01:41:37;;;;;;;6.47;5.70;;;4.70;1.00;;;;;;5067248;28;20222;-82
2021/04/12 01:44:25;;;;;;;6.70;5.93;;;4.70;1.00;;;;;;5064461;28;20233;-80
2021/04/12 01:47:01;;;;;;;7.05;6.32;;;4.70;1.00;;;;;;5057754;28;20233;-80
2021/04/12 01:49:48;;;;;;;6.55;5.95;;;4.70;1.00;;;;;;5074814;28;20232;-80
2021/04/12 01:52:48;;;;;;;8.40;7.60;;;4.60;1.00;;;;;;5087325;28;20213;-82
2021/04/12 01:55:36;;;;;;;7.82;7.13;;;4.60;1.00;;;;;;5059256;28;20267;-82
2021/04/12 01:58:27;;;;;;;6.88;6.22;;;4.50;1.00;;;;;;5092910;28;20212;-80
2021/04/12 02:01:11;;;;;;;7.47;6.30;;;4.50;1.00;;;;;;5080851;28;20212;-81
2021/04/12 02:04:10;;;;;;;9.05;7.15;;;4.50;1.00;;;;;;5085415;28;20223;-81
2021/04/12 02:06:48;;;;;;;7.72;6.93;;;4.60;1.00;;;;;;5070972;28;20242;-81
2021/04/12 02:09:43;;;;;;;8.13;7.32;;;4.60;1.00;;;;;;5073545;28;20657;-81
2021/04/12 02:12:23;;;;;;;10.75;8.60;;;4.60;1.00;;;;;;5057167;28;21074;-82
2021/04/12 02:15:15;;;;;;;10.50;9.30;;;4.60;1.00;;;;;;5064540;28;20224;-81
2021/04/12 02:17:54;;;;;;;9.75;8.75;;;4.60;1.00;;;;;;5046164;28;20228;-81
2021/04/12 02:20:26;;;;;;;9.25;8.35;;;4.50;1.00;;;;;;5073849;28;20225;-81
2021/04/12 02:23:26;;;;;;;8.02;7.22;;;4.50;1.00;;;;;;5047797;28;20332;-79
2021/04/12 02:26:04;;;;;;;7.85;7.15;;;4.50;1.00;;;;;;5056986;28;20225;-81
2021/04/12 02:28:58;;;;;;;8.88;7.97;;;4.50;1.00;;;;;;5050203;28;20232;-81
2021/04/12 02:31:41;;;;;;;7.15;6.45;;;4.50;1.00;;;;;;5057135;28;20328;-79
2021/04/12 02:34:20;;;;;;;7.07;6.38;;;4.50;1.00;;;;;;5073940;28;20409;-79
2021/04/12 02:37:06;;;;;;;6.93;6.28;;;4.50;1.00;;;;;;5055557;28;20230;-79
2021/04/12 02:39:52;;;;;;;6.65;5.97;;;4.60;1.00;;;;;;5062393;28;21067;-81
2021/04/12 02:42:35;;;;;;;6.43;5.82;;;4.50;1.00;;;;;;5049421;28;20232;-80
2021/04/12 02:45:19;;;;;;;6.57;5.97;;;4.50;1.00;;;;;;5060723;28;20734;-80
2021/04/12 02:48:24;;;;;;;6.78;6.13;;;4.50;1.00;;;;;;5048367;28;20344;-79
2021/04/12 02:51:14;;;;;;;5.93;5.43;;;4.40;1.00;;;;;;5039812;28;20221;-76
2021/04/12 02:54:13;;;;;;;7.47;6.78;;;4.30;1.00;;;;;;5048797;28;20933;-79
2021/04/12 02:57:09;;;;;;;6.63;5.93;;;4.30;1.00;;;;;;5053865;28;20228;-81
2021/04/12 03:00:13;;;;;;;6.28;5.78;;;4.30;1.00;;;;;;5044293;28;20249;-78
2021/04/12 03:03:19;;;;;;;6.30;5.70;;;4.30;1.00;;;;;;5044909;28;20235;-76
2021/04/12 03:06:19;;;;;;;8.45;6.28;;;4.30;1.00;;;;;;5055985;28;20339;-79
2021/04/12 03:09:07;;;;;;;7.32;6.63;;;4.40;1.00;;;;;;5057766;28;21425;-77
2021/04/12 03:12:02;;;;;;;8.35;6.47;;;4.40;1.00;;;;;;5053182;28;20966;-82
2021/04/12 03:14:59;;;;;;;9.35;6.53;;;4.50;1.00;;;;;;5056096;28;20233;-81
2021/04/12 03:18:08;;;;;;;8.35;7.50;;;4.60;1.00;;;;;;5072274;28;20229;-80
2021/04/12 03:20:55;;;;;;;7.05;6.13;;;4.60;1.00;;;;;;4997963;28;20798;-80
2021/04/12 03:23:50;;;;;;;6.75;6.13;;;4.50;1.00;;;;;;5083434;28;20209;-81
2021/04/12 03:26:46;;;;;;;7.75;6.95;;;4.50;1.00;;;;;;5085929;28;20243;-82
2021/04/12 03:29:25;;;;;;;8.10;7.03;;;4.50;1.00;;;;;;5055147;28;20255;-82
2021/04/12 03:32:19;;;;;;;8.13;7.32;;;4.50;1.00;;;;;;5083194;28;21027;-81
2021/04/12 03:35:02;;;;;;;7.30;6.55;;;4.60;1.00;;;;;;5058636;28;20281;-82
2021/04/12 03:37:40;;;;;;;7.97;7.20;;;4.60;1.00;;;;;;5087405;28;20255;-81
2021/04/12 03:40:24;;;;;;;6.50;5.43;;;4.60;1.00;;;;;;5092391;28;20209;-84
2021/04/12 03:43:24;;;;;;;8.30;7.50;;;4.60;1.00;;;;;;5088081;28;20252;-82
2021/04/12 03:46:13;;;;;;;7.20;6.53;;;4.70;1.00;;;;;;5073202;28;20232;-80
2021/04/12 03:49:18;;;;;;;8.73;7.78;;;4.70;1.00;;;;;;5089257;28;20246;-82
2021/04/12 03:52:11;;;;;;;8.38;7.50;;;4.70;1.00;;;;;;5072432;28;20230;-80
2021/04/12 03:55:09;;;;;;;7.28;6.53;;;4.80;1.00;;;;;;5080341;28;20225;-82
2021/04/12 03:58:05;;;;;;;7.80;7.00;;;4.80;1.00;;;;;;5098072;28;20245;-82
2021/04/12 04:00:50;;;;;;;9.50;7.65;;;4.80;1.00;;;;;;5079497;28;20281;-82
2021/04/12 04:03:44;;;;;;;8.02;7.07;;;4.80;1.00;;;;;;5084075;28;20229;-81
2021/04/12 04:06:44;;;;;;;7.15;6.45;;;4.80;1.00;;;;;;5076781;28;20229;-82
2021/04/12 04:09:47;;;;;;;8.27;7.40;;;4.90;1.00;;;;;;5080131;28;20251;-82
2021/04/12 04:12:38;;;;;;;8.13;5.88;;;4.90;1.00;;;;;;5072646;28;20225;-79
2021/04/12 04:15:37;;;;;;;6.88;6.20;;;4.90;1.00;;;;;;5076464;28;20229;-80
2021/04/12 04:18:55;;;;;;;7.10;6.40;;;4.90;1.00;;;;;;5096598;28;20205;-82
2021/04/12 04:22:04;;;;;;;6.90;6.30;;;5.00;1.00;;;;;;5076161;28;21147;-80
2021/04/12 04:25:07;;;;;;;6.78;6.15;;;5.00;1.00;;;;;;5074004;28;20268;-82
2021/04/12 04:27:50;;;;;;;6.82;6.20;;;5.00;1.00;;;;;;5055350;28;20800;-79
2021/04/12 04:31:04;;;;;;;8.25;7.45;;;5.00;1.00;;;;;;5073118;28;20277;-78
2021/04/12 04:33:51;;;;;;;6.93;6.32;;;5.10;1.00;;;;;;5074522;28;20256;-78
2021/04/12 04:36:46;;;;;;;6.40;5.70;;;5.20;1.00;;;;;;5069172;28;20802;-78
2021/04/12 04:39:48;;;;;;;6.45;5.90;;;5.10;1.00;;;;;;5067564;28;20239;-80
2021/04/12 04:42:47;;;;;;;6.10;5.50;;;5.10;1.00;;;;;;5047039;28;20252;-77
2021/04/12 04:45:41;;;;;;;6.28;5.50;;;5.10;1.00;;;;;;5069606;28;20244;-76
2021/04/12 04:48:35;;;;;;;6.47;5.45;;;5.10;1.00;;;;;;5067090;28;20221;-78
2021/04/12 04:51:29;;;;;;;6.20;5.70;;;5.00;1.00;;;;;;5066930;28;20218;-79
2021/04/12 04:54:15;;;;;;;6.72;6.07;;;5.10;1.00;;;;;;5078537;27;20617;-80
2021/04/12 04:57:00;;;;;;;7.25;6.07;;;5.00;1.00;;;;;;5065064;28;20235;-79
2021/04/12 04:59:39;;;;;;;6.55;5.95;;;5.10;1.00;;;;;;5053132;28;20217;-77
2021/04/12 05:02:51;;;;;;;10.88;6.30;;;5.10;1.00;;;;;;5063684;28;20285;-79
2021/04/12 05:05:27;;;;;;;5.93;5.32;;;5.10;1.00;;;;;;5062383;28;20229;-80
2021/04/12 05:08:22;;;;;;;6.13;5.53;;;5.10;1.00;;;;;;5048428;28;21514;-79
2021/04/12 05:11:06;;;;;;;5.18;4.68;;;5.10;1.00;;;;;;5068015;28;20274;-79
2021/04/12 05:14:00;;;;;;;7.95;6.30;;;5.20;1.00;;;;;;5059872;28;20232;-78
2021/04/12 05:17:02;;;;;;;6.72;6.03;;;5.10;1.00;;;;;;5073215;28;20221;-80
2021/04/12 05:19:50;;;;;;;6.38;5.18;;;5.20;1.00;;;;;;5068454;28;20231;-80
2021/04/12 05:22:40;;;;;;;8.18;5.88;;;5.20;1.00;;;;;;5073310;28;20232;-78
2021/04/12 05:25:28;;;;;;;5.07;4.57;;;5.20;1.00;;;;;;5073909;28;21453;-78
2021/04/12 05:28:37;;;;;;;5.93;5.43;;;5.20;1.00;;;;;;5076090;28;20226;-79
2021/04/12 05:31:33;;;;;;;6.15;5.35;;;5.20;1.00;;;;;;5070226;28;20233;-79
2021/04/12 05:34:30;;;;;;;4.43;4.00;;;5.20;1.00;;;;;;5067012;28;20231;-79
2021/04/12 05:37:21;;;;;;;6.05;4.70;;;5.30;1.00;;;;;;5074205;28;20234;-79
2021/04/12 05:40:23;;;;;;;11.43;7.25;;;5.30;1.00;;;;;;5062843;28;20232;-79
2021/04/12 05:43:08;;;;;;;5.70;4.85;;;5.40;1.00;;;;;;5068960;28;20328;-77
2021/04/12 05:46:18;;;;;;;6.30;5.70;;;5.40;1.00;;;;;;5072397;28;20228;-78
2021/04/12 05:49:29;;;;;;;7.40;5.00;;;5.50;1.00;;;;;;5087923;28;20211;-77
2021/04/12 05:52:24;;;;;;;4.90;4.38;;;5.50;1.00;;;;;;5092003;28;20224;-78
2021/04/12 05:55:27;;;;;;;7.03;4.50;;;5.60;1.00;;;;;;5051095;28;20218;-78
2021/04/12 05:58:21;;;;;;;4.95;4.45;;;5.60;1.00;;;;;;5075915;28;20272;-78
2021/04/12 06:00:57;;;;;;;6.38;4.50;;;5.60;1.00;;;;;;5071638;28;20563;-78
2021/04/12 06:03:44;;;;;;;5.85;4.40;;;5.60;1.00;;;;;;5072822;28;20288;-76
2021/04/12 06:06:52;;;;;;;8.65;5.10;;;5.60;1.00;;;;;;5075140;28;20232;-82
2021/04/12 06:09:47;;;;;;;9.35;4.97;;;5.70;1.00;;;;;;5079975;28;20247;-81
2021/04/12 06:12:53;;;;;;;5.22;4.28;;;5.60;1.00;;;;;;5048526;28;20309;-81
2021/04/12 06:16:01;;;;;;;4.50;4.20;;;5.70;1.00;;;;;;5071121;28;20237;-83
2021/04/12 06:18:58;;;;;;;4.97;3.97;;;5.70;1.00;;;;;;5072109;28;21005;-82
2021/04/12 06:21:53;;;;;;;4.22;3.65;;;5.70;1.00;;;;;;5072998;28;20217;-81
2021/04/12 06:24:57;;;;;;;4.07;3.58;;;5.70;1.00;;;;;;5039023;28;20227;-82
2021/04/12 06:27:43;;;;;;;4.47;3.65;;;5.70;1.00;;;;;;5077540;28;20228;-81
2021/04/12 06:30:52;;;;;;;4.78;3.78;;;5.70;1.00;;;;;;5082703;28;20221;-82
2021/04/12 06:33:46;;;;;;;6.40;4.50;;;5.70;1.00;;;;;;5082981;28;21156;-79
2021/04/12 06:36:35;;;;;;;5.93;5.32;;;5.70;1.00;;;;;;5093709;28;22127;-81
2021/04/12 06:39:42;;;;;;;3.63;3.33;;;5.80;1.00;;;;;;5089237;28;20253;-80
2021/04/12 06:42:56;;;;;;;7.03;3.50;;;5.90;1.00;;;;;;5062551;28;20239;-79
2021/04/12 06:46:29;;;;;;;6.53;2.83;;;5.90;1.00;;;;;;5071356;28;20240;-83
2021/04/12 06:49:26;;;;;;;7.65;2.90;;;5.80;1.00;;;;;;5067495;28;20289;-80
2021/04/12 06:52:34;;;;;;;5.22;3.35;;;5.70;1.00;;;;;;5060009;28;20735;-81
2021/04/12 06:55:19;;;;;;;5.10;2.67;;;5.80;1.00;;;;;;5082122;28;20240;-82
2021/04/12 06:58:25;;;;;;;9.02;3.60;;;5.80;1.00;;;;;;5071520;28;20287;-83
2021/04/12 07:01:23;;;;;;;5.60;3.20;;;5.90;1.00;;;;;;5049620;28;20238;-80
2021/04/12 07:04:27;;;;;;;5.75;3.13;;;6.10;1.00;;;;;;5065241;28;20429;-81
2021/04/12 07:07:23;;;;;;;10.23;4.63;;;6.20;1.00;;;;;;5073598;28;20216;-82
2021/04/12 07:10:39;;;;;;;3.42;3.13;;;6.20;1.00;;;;;;5043384;28;20797;-80
2021/04/12 07:13:28;;;;;;;3.60;3.15;;;6.40;1.00;;;;;;5021332;28;20220;-81
2021/04/12 07:16:36;;;;;;;4.53;3.58;;;6.50;1.00;;;;;;5078891;28;20221;-81
2021/04/12 07:20:02;;;;;;;4.80;3.53;;;6.50;1.00;;;;;;5061845;28;20224;-82
2021/04/12 07:22:55;;;;;;;11.65;5.40;;;6.50;1.00;;;;;;5075827;28;20225;-81
2021/04/12 07:25:53;;;;;;;5.78;3.22;;;6.60;1.00;;;;;;5079115;28;20264;-78
2021/04/12 07:29:04;;;;;;;4.93;3.75;;;6.60;1.00;;;;;;5063866;28;20217;-80
2021/04/12 07:32:03;;;;;;;3.63;3.22;;;6.60;1.00;;;;;;5085990;28;21488;-82
2021/04/12 07:35:06;;;;;;;6.93;3.35;;;6.70;1.00;;;;;;5043009;28;20298;-81
2021/04/12 07:38:18;;;;;;;7.57;3.30;;;6.80;1.00;;;;;;5073889;28;20232;-82
2021/04/12 07:41:32;;;;;;;5.93;3.70;;;6.80;1.00;;;;;;5074252;28;20216;-79
2021/04/12 07:45:04;;;;;;;4.07;2.70;;;6.90;1.00;;;;;;5060068;28;20256;-80
2021/04/12 07:48:18;;;;;;;4.90;3.00;;;6.80;1.00;;;;;;5075683;28;20244;-84
2021/04/12 07:51:32;;;;;;;3.08;2.40;;;6.90;1.00;;;;;;5062334;28;20288;-82
2021/04/12 07:54:45;;;;;;;2.85;2.45;;;6.90;1.00;;;;;;5063428;28;20711;-82
2021/04/12 07:58:04;;;;;;;5.95;3.13;;;6.90;1.00;;;;;;5072227;28;20282;-80
2021/04/12 08:00:59;;;;;;;3.63;2.63;;;6.80;1.00;;;;;;5065945;28;21530;-82
2021/04/12 08:04:01;;;;;;;3.33;1.95;;;6.90;1.00;;;;;;5076594;28;20217;-79
2021/04/12 08:07:21;;;;;;;4.30;2.03;;;7.10;1.00;;;;;;5077474;28;20235;-82
2021/04/12 08:10:20;;;;;;;6.53;2.53;;;7.10;1.00;;;;;;5059971;28;20433;-80
2021/04/12 08:13:26;;;;;;;5.95;2.50;;;7.30;1.00;;;;;;5071570;28;20280;-82
2021/04/12 08:16:46;;;;;;;5.90;3.13;;;7.70;1.00;;;;;;5062224;28;20234;-82
2021/04/12 08:19:58;;;;;;;3.90;2.67;;;8.10;1.00;;;;;;5075810;28;20228;-82
2021/04/12 08:23:00;;;;;;;12.52;3.13;;;8.40;1.00;;;;;;5081773;28;20211;-81
2021/04/12 08:26:18;;;;;;;5.60;3.08;;;8.40;1.00;;;;;;5072687;28;20267;-82
2021/04/12 08:29:10;;;;;;;3.50;3.20;;;8.40;1.00;;;;;;5094022;28;20225;-83
2021/04/12 08:32:32;;;;;;;3.03;2.05;;;8.30;1.00;;;;;;5069952;28;20229;-82
2021/04/12 08:36:05;;;;;;;5.50;2.30;;;8.00;1.00;;;;;;5061032;28;20285;-80
2021/04/12 08:39:02;;;;;;;3.75;2.10;;;7.80;1.00;;;;;;5082997;28;20699;-79
2021/04/12 08:41:50;;;;;;;2.95;1.77;;;7.90;1.00;;;;;;5060461;28;20263;-81
2021/04/12 08:44:57;;;;;;;3.92;2.90;;;8.10;1.00;;;;;;5086592;28;21699;-81
2021/04/12 08:48:20;;;;;;;14.75;2.78;;;8.00;1.00;;;;;;5076389;28;20283;-78
2021/04/12 08:51:31;;;;;;;5.93;2.67;;;8.10;1.00;;;;;;5017192;28;20231;-77
2021/04/12 08:54:22;;;;;;;4.05;2.30;;;8.30;1.00;;;;;;5072708;28;20220;-81
2021/04/12 08:57:09;;;;;;;6.22;2.13;;;8.50;1.00;;;;;;5075025;28;20218;-79
2021/04/12 09:00:26;;;;;;;4.22;1.70;;;8.60;1.00;;;;;;5103931;28;20215;-80
2021/04/12 09:03:28;;;;;;;5.35;2.45;;;8.70;1.00;;;;;;5025640;28;20233;-82
2021/04/12 09:06:36;;;;;;;5.75;2.97;;;8.90;1.00;;;;;;5072135;28;20257;-80
2021/04/12 09:09:41;;;;;;;3.13;1.83;;;8.90;1.00;;;;;;5068228;28;20444;-80
2021/04/12 09:12:48;;;;;;;2.78;1.60;;;9.10;1.00;;;;;;5068137;28;20732;-81
2021/04/12 09:15:42;;;;;;;5.25;2.30;;;9.30;1.00;;;;;;5071512;28;20239;-81
2021/04/12 09:19:00;;;;;;;2.88;1.85;;;9.40;1.00;;;;;;5062334;28;20226;-80
2021/04/12 09:21:56;;;;;;;10.35;4.05;;;9.70;1.00;;;;;;5086625;28;20229;-84
2021/04/12 09:24:56;;;;;;;4.13;1.55;;;10.10;1.00;;;;;;5086518;28;20250;-81
2021/04/12 09:27:58;;;;;;;4.35;1.70;;;10.10;1.00;;;;;;5083772;28;20229;-81
2021/04/12 09:31:03;;;;;;;5.72;2.53;;;10.30;1.00;;;;;;5094175;28;20220;-80
2021/04/12 09:34:09;;;;;;;7.65;2.60;;;10.60;1.00;;;;;;5097797;27;20241;-81
2021/04/12 09:37:21;;;;;;;9.43;2.30;;;11.00;1.00;;;;;;5089526;28;20225;-82
2021/04/12 09:40:26;;;;;;;2.50;1.95;;;11.00;1.00;;;;;;5086075;28;20438;-79
2021/04/12 09:43:25;;;;;;;2.50;1.60;;;10.70;1.00;;;;;;5087808;28;20225;-79
2021/04/12 09:46:24;;;;;;;2.83;2.22;;;10.20;1.00;;;;;;5092139;28;20234;-78
2021/04/12 09:49:22;;;;;;;4.22;2.50;;;9.70;1.00;;;;;;5023997;28;20228;-79
2021/04/12 09:52:26;;;;;;;2.28;1.58;;;9.40;1.00;;;;;;5077218;28;20224;-77
2021/04/12 09:55:25;;;;;;;5.45;2.10;;;9.30;1.00;;;;;;5064908;28;20317;-79
2021/04/12 09:58:45;;;;;;;5.00;2.67;;;9.40;1.00;;;;;;5078976;28;20237;-77
2021/04/12 10:01:18;;;;;;;3.92;2.20;;;9.50;1.00;;;;;;5072735;28;20231;-79
2021/04/12 10:04:35;;;;;;;2.88;2.10;;;9.60;1.00;;;;;;5086029;28;20285;-79
2021/04/12 10:07:15;;;;;;;3.25;2.60;;;9.80;1.00;;;;;;5088403;28;20229;-82
2021/04/12 10:09:58;;;;;;;3.47;1.90;;;10.30;1.00;;;;;;5091149;28;20284;-84
2021/04/12 10:12:56;;;;;;;5.00;2.90;;;11.00;1.00;;;;;;5086374;28;20650;-83
2021/04/12 10:15:44;;;;;;;4.80;2.43;;;11.50;1.00;;;;;;5074813;28;20286;-83
2021/04/12 10:18:51;;;;;;;5.87;2.73;;;12.10;1.00;;;;;;5087311;28;20395;-82
2021/04/12 10:21:26;;;;;;;4.30;2.37;;;12.10;1.00;;;;;;5080500;28;20787;-84
2021/04/12 10:24:04;;;;;;;5.43;2.30;;;11.90;1.00;;;;;;5105802;28;20458;-82
2021/04/12 10:26:47;;;;;;;4.47;2.43;;;11.60;1.00;;;;;;5088888;28;20457;-82
2021/04/12 10:29:28;;;;;;;2.95;2.10;;;11.40;1.00;;;;;;5091287;28;20424;-81
2021/04/12 10:32:01;;;;;;;3.77;2.10;;;11.60;1.00;;;;;;5082994;28;20208;-83
2021/04/12 10:34:48;;;;;;;8.00;2.77;;;11.80;1.00;;;;;;5090087;28;20500;-83
2021/04/12 10:37:31;;;;;;;4.03;2.97;;;11.80;1.00;;;;;;5173293;22;20448;-82
2021/04/12 10:40:04;;;;;;;3.70;2.30;;;11.70;1.00;;;;;;5064860;28;20465;-78
2021/04/12 10:42:47;;;;;;;4.33;2.90;;;11.60;1.00;;;;;;5048449;28;20417;-76
2021/04/12 10:45:19;;;;;;;8.38;3.00;;;11.40;1.00;;;;;;5047270;28;20447;-78
2021/04/12 10:47:56;;;;;;;6.50;2.63;;;11.00;1.00;;;;;;5034786;28;20269;-78
2021/04/12 10:50:37;;;;;;;6.38;3.40;;;10.70;1.00;;;;;;5043403;28;20441;-80
2021/04/12 10:53:36;;;;;;;3.42;2.90;;;10.30;1.00;;;;;;5030229;28;20219;-77
2021/04/12 10:56:08;;;;;;;4.60;3.28;;;10.10;1.00;;;;;;5001881;28;20238;-78
2021/04/12 10:59:11;;;;;;;3.67;3.00;;;10.00;1.00;;;;;;5028124;28;20223;-78
2021/04/12 11:01:42;;;;;;;3.90;2.92;;;9.90;1.00;;;;;;5004107;28;20290;-76
2021/04/12 11:04:24;;;;;;;7.28;3.25;;;9.70;1.00;;;;;;5029186;28;20231;-82
2021/04/12 11:07:13;;;;;;;2.72;2.50;;;9.60;1.00;;;;;;5045829;28;20238;-80
2021/04/12 11:09:59;;;;;;;4.90;2.35;;;9.30;1.00;;;;;;5031438;28;20213;-80
2021/04/12 11:12:55;;;;;;;3.92;3.42;;;9.10;1.00;;;;;;5035512;28;21105;-80
2021/04/12 11:15:37;;;;;;;9.18;3.40;;;9.20;1.00;;;;;;5028994;28;20232;-80
2021/04/12 11:18:25;;;;;;;7.68;3.30;;;9.40;1.00;;;;;;5019414;28;20314;-83
2021/04/12 11:21:03;;;;;;;2.67;2.15;;;9.70;1.00;;;;;;5030954;28;20220;-79
2021/04/12 11:23:38;;;;;;;4.72;2.13;;;9.90;1.00;;;;;;5019963;28;20817;-80
2021/04/12 11:26:23;;;;;;;5.85;3.20;;;9.60;1.00;;;;;;5025335;28;21235;-78
2021/04/12 11:28:55;;;;;;;5.43;2.90;;;9.50;1.00;;;;;;5030188;28;21356;-80
2021/04/12 11:31:42;;;;;;;3.92;2.72;;;9.40;1.00;;;;;;5044933;28;20216;-79
2021/04/12 11:34:25;;;;;;;2.60;2.35;;;9.40;1.00;;;;;;5016528;28;20219;-81
2021/04/12 11:37:05;;;;;;;3.35;2.05;;;9.40;1.00;;;;;;5022534;28;20261;-79
2021/04/12 11:39:36;;;;;;;4.82;2.70;;;9.40;1.00;;;;;;5021323;28;20231;-79
2021/04/12 11:42:07;;;;;;;3.45;2.03;;;9.30;1.00;;;;;;5019417;28;20241;-79
2021/04/12 11:44:40;;;;;;;2.67;2.47;;;9.20;1.00;;;;;;5016919;28;20230;-80
2021/04/12 11:47:34;;;;;;;3.63;2.10;;;9.10;1.00;;;;;;5034608;28;20222;-79
2021/04/12 11:50:25;;;;;;;3.97;2.50;;;9.10;1.00;;;;;;5013911;28;20305;-79
2021/04/12 11:52:57;;;;;;;3.70;2.00;;;8.90;1.00;;;;;;5047702;28;20224;-79
2021/04/12 11:55:39;;;;;;;3.40;2.22;;;8.80;1.00;;;;;;5044878;28;20237;-79
2021/04/12 11:58:17;;;;;;;7.93;2.58;;;9.10;1.00;;;;;;5026893;28;20278;-80
2021/04/12 12:00:57;;;;;;;5.20;4.00;;;9.30;1.00;;;;;;5020921;28;20230;-78
2021/04/12 12:03:42;;;;;;;3.03;2.00;;;9.40;1.00;;;;;;5019077;28;20309;-78
2021/04/12 12:06:25;;;;;;;9.07;3.30;;;9.40;1.00;;;;;;5009311;28;20252;-79
2021/04/12 12:09:06;;;;;;;4.45;2.15;;;9.30;1.00;;;;;;5018573;28;20238;-77
2021/04/12 12:11:45;;;;;;;6.03;2.72;;;9.40;1.00;;;;;;5017199;28;20665;-79
2021/04/12 12:14:22;;;;;;;2.45;1.95;;;9.40;1.00;;;;;;5024630;28;20234;-79
2021/04/12 12:16:55;;;;;;;2.35;1.67;;;9.40;1.00;;;;;;5041164;28;20231;-79
2021/04/12 12:19:30;;;;;;;3.70;2.33;;;9.50;1.00;;;;;;5024944;28;20304;-79
2021/04/12 12:22:07;;;;;;;2.47;2.25;;;9.70;1.00;;;;;;5028696;28;20237;-77
2021/04/12 12:24:58;;;;;;;2.88;2.20;;;10.10;1.00;;;;;;5028807;28;20233;-78
2021/04/12 12:27:35;;;;;;;11.88;3.40;;;10.40;1.00;;;;;;5031975;28;22293;-78
2021/04/12 12:30:18;;;;;;;4.00;1.97;;;10.80;1.00;;;;;;5017137;28;20214;-78
2021/04/12 12:33:03;;;;;;;4.93;2.10;;;11.20;1.00;;;;;;5031155;28;21257;-78
2021/04/12 12:35:54;;;;;;;3.27;1.90;;;11.50;1.00;;;;;;5018792;28;20473;-77
2021/04/12 12:38:41;;;;;;;3.00;1.90;;;11.60;1.00;;;;;;5030415;28;20482;-79
2021/04/12 12:41:14;;;;;;;1.60;1.50;;;11.60;1.00;;;;;;5020327;28;20410;-79
2021/04/12 12:43:42;;;;;;;2.20;1.60;;;11.80;1.00;;;;;;5042507;28;20437;-80
2021/04/12 12:46:26;;;;;;;3.93;2.13;;;11.80;1.00;;;;;;5033866;28;20468;-80
2021/04/12 12:49:05;;;;;;;2.30;1.90;;;12.10;1.00;;;;;;5041560;28;20429;-79
2021/04/12 12:51:36;;;;;;;2.70;1.43;;;12.80;1.00;;;;;;5047857;28;20459;-78
2021/04/12 12:54:07;;;;;;;3.47;1.80;;;13.10;1.00;;;;;;5043853;28;20456;-81
2021/04/12 12:56:40;;;;;;;1.73;1.43;;;13.00;1.00;;;;;;5037680;28;20456;-82
2021/04/12 12:59:21;;;;;;;3.03;1.43;;;12.80;1.00;;;;;;5047475;28;20438;-80
2021/04/12 13:01:51;;;;;;;4.77;2.10;;;12.40;1.00;;;;;;5049429;28;20512;-80
2021/04/12 13:04:23;;;;;;;3.10;2.00;;;12.70;1.00;;;;;;5054351;28;20409;-80
2021/04/12 13:06:57;;;;;;;1.90;1.43;;;12.70;1.00;;;;;;5029986;28;20444;-83
2021/04/12 13:09:30;;;;;;;3.50;1.77;;;12.30;1.00;;;;;;5041669;28;20417;-79
2021/04/12 13:12:00;;;;;;;4.03;2.17;;;12.10;1.00;;;;;;5031277;28;24631;-81
2021/04/12 13:14:44;;;;;;;2.70;2.37;;;11.90;1.00;;;;;;5046331;28;20429;-83
2021/04/12 13:17:34;;;;;;;2.30;1.37;;;11.70;1.00;;;;;;5032833;28;20441;-78
2021/04/12 13:20:03;;;;;;;2.70;1.43;;;11.20;1.00;;;;;;5037996;28;21047;-79
2021/04/12 13:22:34;;;;;;;2.35;1.70;;;11.00;1.00;;;;;;5023909;28;20559;-80
2021/04/12 13:25:20;;;;;;;5.30;1.90;;;10.90;1.00;;;;;;5025168;28;20329;-81
2021/04/12 13:27:51;;;;;;;4.32;2.50;;;10.90;1.00;;;;;;5017930;28;20542;-78
2021/04/12 13:30:28;;;;;;;5.35;1.75;;;10.90;1.00;;;;;;5025779;28;20295;-79
2021/04/12 13:33:00;;;;;;;6.93;3.33;;;10.80;1.00;;;;;;5018027;28;20700;-79
2021/04/12 13:35:30;;;;;;;2.83;1.73;;;10.80;1.00;;;;;;5024436;28;20551;-78
2021/04/12 13:38:05;;;;;;;2.78;1.50;;;10.70;1.00;;;;;;5012105;28;20217;-78
2021/04/12 13:40:39;;;;;;;2.38;1.77;;;10.60;1.00;;;;;;5030713;28;20328;-81
2021/04/12 13:43:08;;;;;;;4.13;1.70;;;10.60;1.00;;;;;;5011095;28;20230;-80
2021/04/12 13:45:41;;;;;;;2.50;1.77;;;10.70;1.00;;;;;;5040898;28;20449;-79
2021/04/12 13:48:13;;;;;;;3.00;1.67;;;10.80;1.00;;;;;;5019238;28;20458;-78
2021/04/12 13:50:53;;;;;;;2.47;1.67;;;11.30;1.00;;;;;;5029810;28;20224;-78
2021/04/12 13:53:33;;;;;;;5.30;1.90;;;11.80;1.00;;;;;;5037708;28;20241;-81
2021/04/12 13:56:10;;;;;;;1.60;1.40;;;12.30;1.00;;;;;;5047903;28;20428;-79
2021/04/12 13:58:39;;;;;;;3.47;1.57;;;12.30;1.00;;;;;;5023159;28;20429;-78
2021/04/12 14:01:12;;;;;;;2.28;1.52;;;11.70;1.00;;;;;;5029010;28;20571;-77
2021/04/12 14:03:55;;;;;;;7.10;2.90;;;11.40;1.00;;;;;;5025710;28;20222;-83
2021/04/12 14:06:31;;;;;;;2.37;1.83;;;11.10;1.00;;;;;;5042703;28;20442;-79
2021/04/12 14:09:02;;;;;;;2.00;1.30;;;11.00;1.00;;;;;;5024641;28;20530;-78
2021/04/12 14:11:34;;;;;;;3.73;2.07;;;11.10;1.00;;;;;;5039002;28;20459;-78
2021/04/12 14:14:11;;;;;;;3.70;1.80;;;11.10;1.00;;;;;;5014261;28;20419;-79
2021/04/12 14:16:42;;;;;;;1.90;1.70;;;11.20;1.00;;;;;;5026110;28;20487;-80
2021/04/12 14:19:16;;;;;;;2.67;1.97;;;11.40;1.00;;;;;;5012169;28;20457;-79
2021/04/12 14:21:46;;;;;;;7.68;1.95;;;11.60;1.00;;;;;;5018953;28;20480;-78
2021/04/12 14:24:22;;;;;;;4.30;1.80;;;11.80;1.00;;;;;;5022116;28;20227;-79
2021/04/12 14:26:55;;;;;;;2.50;1.23;;;12.00;1.00;;;;;;5018898;28;20468;-80
2021/04/12 14:29:32;;;;;;;1.73;1.13;;;11.90;1.00;;;;;;5031299;28;20207;-81
2021/04/12 14:32:05;;;;;;;1.90;1.50;;;11.60;1.00;;;;;;5022317;28;20972;-81
2021/04/12 14:34:41;;;;;;;3.08;1.95;;;11.40;1.00;;;;;;5033296;28;20267;-82
2021/04/12 14:37:25;;;;;;;3.60;1.87;;;11.40;1.00;;;;;;5023720;28;20230;-79
2021/04/12 14:39:51;;;;;;;1.80;1.50;;;11.40;1.00;;;;;;5026775;28;20459;-79
2021/04/12 14:42:27;;;;;;;6.40;1.67;;;11.30;1.00;;;;;;5012386;28;20418;-78
2021/04/12 14:45:08;;;;;;;2.67;1.33;;;11.10;1.00;;;;;;5024146;28;20443;-83
2021/04/12 14:47:41;;;;;;;4.07;1.67;;;11.00;1.00;;;;;;5025340;28;20479;-79
2021/04/12 14:50:16;;;;;;;3.23;1.50;;;11.30;1.00;;;;;;5027139;28;20543;-81
2021/04/12 14:52:47;;;;;;;1.80;1.07;;;11.50;1.00;;;;;;5027928;28;20401;-83
2021/04/12 14:55:25;;;;;;;2.80;1.13;;;11.60;1.00;;;;;;5036761;28;21231;-80
2021/04/12 14:57:59;;;;;;;4.43;2.20;;;11.70;1.00;;;;;;5008977;28;21530;-79
2021/04/12 15:00:42;;;;;;;2.20;1.27;;;11.60;1.00;;;;;;5019540;28;20217;-78
2021/04/12 15:03:17;;;;;;;2.35;1.00;;;11.30;1.00;;;;;;5025176;28;20534;-79
2021/04/12 15:05:46;;;;;;;2.37;1.80;;;11.10;1.00;;;;;;5021616;28;20242;-79